createdAt,value
2023-01-03T00:00:50.163Z,101749.97
2023-01-03T00:03:17.860Z,101751.00
2023-01-03T00:05:45.820Z,101745.44
2023-01-03T00:08:13.621Z,101753.03
2023-01-03T00:10:42.951Z,101758.78
2023-01-03T00:13:09.806Z,101761.25
2023-01-03T00:15:39.856Z,101766.81
2023-01-03T00:18:07.505Z,101768.03
2023-01-03T00:20:35.360Z,101766.81
2023-01-03T00:23:02.977Z,101771.00
2023-01-03T00:25:30.943Z,101778.94
2023-01-03T00:27:59.967Z,101779.16
2023-01-03T00:30:27.748Z,101787.63
2023-01-03T00:32:55.612Z,101783.22
2023-01-03T00:35:23.282Z,101780.66
2023-01-03T00:37:51.905Z,101785.72
2023-01-03T00:40:21.029Z,101792.53
2023-01-03T00:43:05.893Z,101797.63
2023-01-03T00:45:37.185Z,101795.47
2023-01-03T00:48:05.352Z,101794.84
2023-01-03T00:50:32.953Z,101786.13
2023-01-03T00:53:00.647Z,101794.34
2023-01-03T00:55:28.795Z,101785.88
2023-01-03T00:57:56.548Z,101785.41
2023-01-03T01:00:24.208Z,101783.22
2023-01-03T01:02:55.401Z,101787.97
2023-01-03T01:05:23.697Z,101793.88
2023-01-03T01:07:51.430Z,101800.78
2023-01-03T01:10:20.646Z,101805.56
2023-01-03T01:12:50.305Z,101814.38
2023-01-03T01:15:17.989Z,101810.66
2023-01-03T01:17:45.638Z,101813.63
2023-01-03T01:20:14.619Z,101815.31
2023-01-03T01:22:42.283Z,101819.84
2023-01-03T01:25:09.995Z,101823.34
2023-01-03T01:27:37.579Z,101828.13
2023-01-03T01:30:05.720Z,101839.28
2023-01-03T01:32:33.300Z,101840.13
2023-01-03T01:35:00.888Z,101851.84
2023-01-03T01:37:29.794Z,101844.91
2023-01-03T01:39:57.417Z,101853.88
2023-01-03T01:42:42.383Z,101859.56
2023-01-03T01:45:14.156Z,101862.44
2023-01-03T01:47:50.393Z,101864.59
2023-01-03T01:50:25.614Z,101870.34
2023-01-03T01:52:57.749Z,101877.59
2023-01-03T01:55:28.901Z,101873.03
2023-01-03T01:57:56.503Z,101877.44
2023-01-03T02:00:24.438Z,101878.75
2023-01-03T02:02:55.374Z,101883.06
2023-01-03T02:05:25.233Z,101881.38
2023-01-03T02:07:55.082Z,101884.41
2023-01-03T02:10:32.711Z,101891.13
2023-01-03T02:13:08.603Z,101887.72
2023-01-03T02:15:50.788Z,101899.06
2023-01-03T02:18:31.681Z,101895.81
2023-01-03T02:21:44.271Z,101904.94
2023-01-03T02:24:47.519Z,101901.47
2023-01-03T02:27:34.491Z,101908.84
2023-01-03T02:30:38.675Z,101918.66
2023-01-03T02:33:17.156Z,101910.25
2023-01-03T02:35:55.785Z,101914.03
2023-01-03T02:38:30.863Z,101907.94
2023-01-03T02:41:06.148Z,101908.09
2023-01-03T02:43:39.707Z,101910.56
2023-01-03T02:46:12.649Z,101905.72
2023-01-03T02:48:49.032Z,101912.56
2023-01-03T02:51:22.107Z,101912.28
2023-01-03T02:53:51.433Z,101915.47
2023-01-03T02:56:24.079Z,101905.44
2023-01-03T02:59:06.711Z,101903.41
2023-01-03T03:01:37.163Z,101901.16
2023-01-03T03:04:06.721Z,101907.94
2023-01-03T03:06:43.233Z,101905.94
2023-01-03T03:09:11.054Z,101908.47
2023-01-03T03:11:59.704Z,101910.69
2023-01-03T03:14:31.671Z,101906.56
2023-01-03T03:17:05.097Z,101903.78
2023-01-03T03:19:59.571Z,101910.09
2023-01-03T03:22:54.461Z,101912.78
2023-01-03T03:25:26.006Z,101910.41
2023-01-03T03:28:16.667Z,101903.91
2023-01-03T03:30:47.062Z,101900.53
2023-01-03T03:33:18.586Z,101905.78
2023-01-03T03:35:50.128Z,101903.91
2023-01-03T03:38:23.470Z,101908.09
2023-01-03T03:41:18.979Z,101907.38
2023-01-03T03:44:12.812Z,101905.56
2023-01-03T03:46:52.413Z,101908.69
2023-01-03T03:49:42.404Z,101907.16
2023-01-03T03:52:15.091Z,101910.19
2023-01-03T03:54:47.711Z,101918.03
2023-01-03T03:57:20.130Z,101914.19
2023-01-03T03:59:54.184Z,101909.50
2023-01-03T04:02:23.802Z,101912.66
2023-01-03T04:04:58.036Z,101919.91
2023-01-03T04:07:26.232Z,101916.88
2023-01-03T04:09:53.946Z,101914.41
2023-01-03T04:12:21.854Z,101917.97
2023-01-03T04:14:49.569Z,101917.72
2023-01-03T04:17:17.341Z,101924.28
2023-01-03T04:19:45.142Z,101925.97
2023-01-03T04:22:14.120Z,101915.56
2023-01-03T04:24:42.749Z,101919.28
2023-01-03T04:27:10.506Z,101920.41
2023-01-03T04:29:39.586Z,101912.50
2023-01-03T04:32:08.409Z,101913.19
2023-01-03T04:34:36.429Z,101924.28
2023-01-03T04:37:04.083Z,101926.69
2023-01-03T04:39:33.029Z,101923.75
2023-01-03T04:42:01.452Z,101925.81
2023-01-03T04:44:28.231Z,101937.13
2023-01-03T04:46:55.829Z,101934.28
2023-01-03T04:49:23.383Z,101936.97
2023-01-03T04:51:50.990Z,101936.66
2023-01-03T04:54:18.576Z,101937.09
2023-01-03T04:56:48.659Z,101940.84
2023-01-03T04:59:16.277Z,101948.31
2023-01-03T05:01:51.991Z,101949.88
2023-01-03T05:04:20.088Z,101958.38
2023-01-03T05:06:47.845Z,101950.97
2023-01-03T05:09:15.538Z,101947.28
2023-01-03T05:11:43.188Z,101953.53
2023-01-03T05:14:14.473Z,101959.47
2023-01-03T05:16:43.883Z,101958.31
2023-01-03T05:19:11.814Z,101966.53
2023-01-03T05:21:58.521Z,101968.41
2023-01-03T05:24:43.819Z,101969.88
2023-01-03T05:27:12.037Z,101970.34
2023-01-03T05:29:41.056Z,101961.88
2023-01-03T05:32:08.755Z,101974.28
2023-01-03T05:34:36.379Z,101974.00
2023-01-03T05:37:04.017Z,101972.84
2023-01-03T05:39:31.616Z,101979.81
2023-01-03T05:42:02.572Z,101973.66
2023-01-03T05:44:31.610Z,101973.66
2023-01-03T05:47:02.340Z,101979.75
2023-01-03T05:49:29.978Z,101981.28
2023-01-03T05:51:57.638Z,101979.81
2023-01-03T05:54:25.834Z,101981.53
2023-01-03T05:56:53.438Z,101985.94
2023-01-03T05:59:22.549Z,101989.56
2023-01-03T06:01:50.566Z,101998.34
2023-01-03T06:04:19.918Z,101995.31
2023-01-03T06:06:47.599Z,101996.19
2023-01-03T06:09:15.360Z,102000.03
2023-01-03T06:11:43.791Z,102003.19
2023-01-03T06:14:11.482Z,102002.34
2023-01-03T06:16:56.793Z,101997.25
2023-01-03T06:19:25.842Z,101998.25
2023-01-03T06:21:53.447Z,101999.56
2023-01-03T06:24:21.049Z,102003.97
2023-01-03T06:26:48.683Z,102000.63
2023-01-03T06:29:16.515Z,102015.44
2023-01-03T06:31:44.095Z,102017.16
2023-01-03T06:34:11.783Z,102016.28
2023-01-03T06:36:40.766Z,102018.84
2023-01-03T06:39:08.753Z,102024.38
2023-01-03T06:41:36.457Z,102028.53
2023-01-03T06:44:04.049Z,102030.66
2023-01-03T06:46:49.666Z,102027.06
2023-01-03T06:49:36.372Z,102019.22
2023-01-03T06:52:29.545Z,102035.53
2023-01-03T06:54:57.196Z,102039.97
2023-01-03T06:57:26.951Z,102037.81
2023-01-03T06:59:56.779Z,102031.94
2023-01-03T07:02:24.543Z,102039.66
2023-01-03T07:04:52.563Z,102041.09
2023-01-03T07:07:21.851Z,102044.03
2023-01-03T07:09:49.423Z,102058.19
2023-01-03T07:12:37.314Z,102055.97
2023-01-03T07:15:05.797Z,102056.56
2023-01-03T07:17:33.511Z,102058.03
2023-01-03T07:20:01.253Z,102064.03
2023-01-03T07:22:31.465Z,102065.72
2023-01-03T07:24:59.135Z,102076.84
2023-01-03T07:27:26.791Z,102075.97
2023-01-03T07:29:54.386Z,102080.53
2023-01-03T07:32:21.981Z,102074.03
2023-01-03T07:34:49.615Z,102079.97
2023-01-03T07:37:17.384Z,102086.22
2023-01-03T07:39:46.387Z,102082.84
2023-01-03T07:42:28.014Z,102088.53
2023-01-03T07:44:55.667Z,102086.53
2023-01-03T07:47:23.347Z,102089.50
2023-01-03T07:49:51.011Z,102092.34
2023-01-03T07:52:18.594Z,102097.88
2023-01-03T07:54:47.585Z,102108.38
2023-01-03T07:57:15.900Z,102103.25
2023-01-03T07:59:43.485Z,102108.97
2023-01-03T08:02:11.219Z,102103.56
2023-01-03T08:04:38.945Z,102109.13
2023-01-03T08:07:06.588Z,102107.31
2023-01-03T08:09:51.963Z,102114.00
2023-01-03T08:12:38.568Z,102111.47
2023-01-03T08:15:07.287Z,102098.97
2023-01-03T08:17:34.891Z,102105.50
2023-01-03T08:20:03.385Z,102111.59
2023-01-03T08:22:30.997Z,102101.66
2023-01-03T08:24:58.646Z,102102.22
2023-01-03T08:27:30.104Z,102102.50
2023-01-03T08:29:57.692Z,102101.19
2023-01-03T08:32:25.512Z,102124.94
2023-01-03T08:34:54.312Z,102120.28
2023-01-03T08:37:22.293Z,102117.53
2023-01-03T08:39:54.131Z,102116.41
2023-01-03T08:42:23.375Z,102119.94
2023-01-03T08:45:02.558Z,102130.34
2023-01-03T08:47:30.311Z,102121.09
2023-01-03T08:49:58.913Z,102132.31
2023-01-03T08:52:30.299Z,102128.63
2023-01-03T08:55:02.360Z,102139.31
2023-01-03T08:57:29.955Z,102143.69
2023-01-03T08:59:58.917Z,102149.34
2023-01-03T09:02:26.777Z,102147.94
2023-01-03T09:04:54.495Z,102154.03
2023-01-03T09:07:22.198Z,102152.19
2023-01-03T09:09:49.905Z,102151.72
2023-01-03T09:12:17.594Z,102154.84
2023-01-03T09:14:45.216Z,102157.13
2023-01-03T09:17:14.182Z,102160.13
2023-01-03T09:19:41.778Z,102164.53
2023-01-03T09:22:09.452Z,102166.09
2023-01-03T09:24:37.091Z,102176.47
2023-01-03T09:27:04.900Z,102176.59
2023-01-03T09:29:32.555Z,102171.44
2023-01-03T09:32:03.180Z,102178.00
2023-01-03T09:34:32.420Z,102174.31
2023-01-03T09:37:00.019Z,102182.41
2023-01-03T09:39:27.587Z,102170.72
2023-01-03T09:42:09.200Z,102182.81
2023-01-03T09:44:36.905Z,102173.59
2023-01-03T09:47:05.407Z,102178.28
2023-01-03T09:49:57.796Z,102174.88
2023-01-03T09:52:43.087Z,102175.75
2023-01-03T09:55:44.125Z,102179.69
2023-01-03T09:58:33.365Z,102168.50
2023-01-03T10:01:31.959Z,102161.94
2023-01-03T10:04:11.745Z,102170.47
2023-01-03T10:06:51.895Z,102155.53
2023-01-03T10:09:31.626Z,102158.69
2023-01-03T10:12:13.637Z,102164.34
2023-01-03T10:14:56.513Z,102151.84
2023-01-03T10:17:33.907Z,102162.78
2023-01-03T10:20:16.746Z,102159.41
2023-01-03T10:22:48.754Z,102164.53
2023-01-03T10:25:21.890Z,102162.13
2023-01-03T10:28:01.043Z,102154.16
2023-01-03T10:30:54.257Z,102143.06
2023-01-03T10:33:37.669Z,102139.19
2023-01-03T10:36:14.622Z,102133.66
2023-01-03T10:38:53.636Z,102123.47
2023-01-03T10:41:37.701Z,102130.50
2023-01-03T10:44:10.928Z,102117.44
2023-01-03T10:46:55.814Z,102126.59
2023-01-03T10:49:31.096Z,102116.53
2023-01-03T10:52:03.766Z,102113.34
2023-01-03T10:54:49.852Z,102113.00
2023-01-03T10:57:38.207Z,102118.06
2023-01-03T11:00:28.762Z,102118.59
2023-01-03T11:03:03.287Z,102114.88
2023-01-03T11:05:37.419Z,102113.72
2023-01-03T11:08:19.644Z,102112.16
2023-01-03T11:11:02.183Z,102108.84
2023-01-03T11:13:41.073Z,102118.97
2023-01-03T11:16:19.141Z,102111.31
2023-01-03T11:19:03.750Z,102104.34
2023-01-03T11:21:47.229Z,102104.38
2023-01-03T11:24:32.360Z,102096.09
2023-01-03T11:27:14.625Z,102092.97
2023-01-03T11:29:59.455Z,102085.97
2023-01-03T11:32:42.840Z,102084.38
2023-01-03T11:35:27.298Z,102086.13
2023-01-03T11:38:10.659Z,102097.72
2023-01-03T11:40:49.760Z,102082.91
2023-01-03T11:43:35.334Z,102081.50
2023-01-03T11:46:19.084Z,102079.81
2023-01-03T11:49:03.429Z,102074.72
2023-01-03T11:51:42.212Z,102073.88
2023-01-03T11:54:32.593Z,102069.88
2023-01-03T11:57:08.695Z,102073.59
2023-01-03T11:59:55.140Z,102068.69
2023-01-03T12:03:03.492Z,102067.84
2023-01-03T12:05:43.286Z,102057.31
2023-01-03T12:08:41.953Z,102062.28
2023-01-03T12:11:24.011Z,102059.81
2023-01-03T12:14:02.799Z,102065.31
2023-01-03T12:16:36.849Z,102056.91
2023-01-03T12:19:17.986Z,102060.94
2023-01-03T12:21:53.630Z,102056.22
2023-01-03T12:24:30.881Z,102048.94
2023-01-03T12:27:05.799Z,102044.38
2023-01-03T12:29:47.637Z,102048.28
2023-01-03T12:32:23.675Z,102043.22
2023-01-03T12:35:05.036Z,102036.16
2023-01-03T12:37:37.493Z,102043.88
2023-01-03T12:40:18.995Z,102033.06
2023-01-03T12:42:55.407Z,102025.00
2023-01-03T12:45:38.652Z,102028.41
2023-01-03T12:48:21.821Z,102020.03
2023-01-03T12:50:52.194Z,102018.41
2023-01-03T12:53:29.054Z,102015.00
2023-01-03T12:56:15.718Z,102011.72
2023-01-03T12:58:58.292Z,102014.91
2023-01-03T13:01:30.662Z,102006.41
2023-01-03T13:04:09.961Z,102007.09
2023-01-03T13:06:43.114Z,102005.09
2023-01-03T13:09:22.459Z,102003.94
2023-01-03T13:11:53.562Z,102002.75
2023-01-03T13:14:24.369Z,102000.72
2023-01-03T13:16:53.993Z,101998.69
2023-01-03T13:19:55.213Z,101995.97
2023-01-03T13:22:48.254Z,101992.63
2023-01-03T13:25:36.987Z,101984.94
2023-01-03T13:28:34.490Z,101981.56
2023-01-03T13:31:35.492Z,101995.69
2023-01-03T13:34:21.022Z,101996.69
2023-01-03T13:37:24.300Z,101997.06
2023-01-03T13:40:45.156Z,101996.69
2023-01-03T13:43:23.677Z,101987.44
2023-01-03T13:46:10.281Z,101994.38
2023-01-03T13:48:42.565Z,102001.84
2023-01-03T13:51:53.886Z,101997.00
2023-01-03T13:54:58.463Z,102005.56
2023-01-03T13:57:40.018Z,101981.59
2023-01-03T14:00:20.317Z,101984.31
2023-01-03T14:03:21.547Z,101978.69
2023-01-03T14:06:06.666Z,101981.56
2023-01-03T14:09:11.234Z,101982.09
2023-01-03T14:12:00.448Z,101991.88
2023-01-03T14:14:31.721Z,101989.28
2023-01-03T14:17:00.730Z,101991.78
2023-01-03T14:19:32.443Z,101995.81
2023-01-03T14:22:26.790Z,101999.69
2023-01-03T14:24:54.989Z,101993.91
2023-01-03T14:27:28.269Z,101984.94
2023-01-03T14:29:56.883Z,101998.31
2023-01-03T14:32:33.669Z,102001.31
2023-01-03T14:35:02.608Z,102007.03
2023-01-03T14:37:32.832Z,102007.50
2023-01-03T14:40:02.704Z,102014.91
2023-01-03T14:42:31.664Z,102021.81
2023-01-03T14:45:00.879Z,102023.47
2023-01-03T14:47:34.215Z,102024.34
2023-01-03T14:50:03.203Z,102024.72
2023-01-03T14:52:34.691Z,102027.66
2023-01-03T14:55:05.330Z,102022.03
2023-01-03T14:57:39.257Z,102022.47
2023-01-03T15:00:12.711Z,102020.66
2023-01-03T15:02:42.267Z,102024.88
2023-01-03T15:05:27.243Z,102013.81
2023-01-03T15:07:55.993Z,102024.34
2023-01-03T15:10:30.971Z,102030.59
2023-01-03T15:13:04.907Z,102032.28
2023-01-03T15:15:38.708Z,102028.53
2023-01-03T15:18:09.897Z,102027.59
2023-01-03T15:20:39.747Z,102031.06
2023-01-03T15:23:08.144Z,102023.97
2023-01-03T15:25:38.665Z,102037.16
2023-01-03T15:28:24.833Z,102029.19
2023-01-03T15:30:54.167Z,102026.19
2023-01-03T15:33:32.097Z,102025.19
2023-01-03T15:36:04.020Z,102027.28
2023-01-03T15:38:34.508Z,102024.63
2023-01-03T15:41:05.568Z,102034.66
2023-01-03T15:43:37.704Z,102029.25
2023-01-03T15:46:11.603Z,102035.50
2023-01-03T15:48:39.753Z,102032.34
2023-01-03T15:51:08.426Z,102029.78
2023-01-03T15:53:43.820Z,102031.78
2023-01-03T15:56:18.447Z,102028.47
2023-01-03T15:58:48.767Z,102030.19
2023-01-03T16:01:17.429Z,102028.84
2023-01-03T16:03:45.810Z,102024.81
2023-01-03T16:06:13.484Z,102033.09
2023-01-03T16:08:42.845Z,102025.66
2023-01-03T16:11:18.325Z,102026.19
2023-01-03T16:13:54.151Z,102029.91
2023-01-03T16:16:26.333Z,102034.47
2023-01-03T16:18:55.297Z,102038.34
2023-01-03T16:21:23.547Z,102028.53
2023-01-03T16:23:52.097Z,102037.25
2023-01-03T16:26:19.770Z,102027.16
2023-01-03T16:28:48.760Z,102027.81
2023-01-03T16:31:19.118Z,102025.97
2023-01-03T16:33:48.556Z,102016.53
2023-01-03T16:36:26.797Z,102016.38
2023-01-03T16:38:54.659Z,102016.38
2023-01-03T16:41:22.217Z,102020.41
2023-01-03T16:43:52.698Z,102007.72
2023-01-03T16:46:23.026Z,102005.56
2023-01-03T16:48:54.307Z,102003.72
2023-01-03T16:51:25.743Z,101998.31
2023-01-03T16:53:56.779Z,101997.44
2023-01-03T16:56:25.531Z,101996.78
2023-01-03T16:58:54.643Z,102000.66
2023-01-03T17:01:22.736Z,101999.78
2023-01-03T17:03:50.865Z,102004.03
2023-01-03T17:06:31.886Z,101994.06
2023-01-03T17:09:09.723Z,101989.50
2023-01-03T17:11:37.595Z,101989.34
2023-01-03T17:14:06.859Z,101983.59
2023-01-03T17:16:35.371Z,101992.03
2023-01-03T17:19:03.117Z,101984.94
2023-01-03T17:21:33.423Z,101983.09
2023-01-03T17:24:04.873Z,101986.09
2023-01-03T17:26:34.559Z,101975.28
2023-01-03T17:29:07.085Z,101975.81
2023-01-03T17:31:34.671Z,101977.69
2023-01-03T17:34:13.079Z,101980.06
2023-01-03T17:36:40.719Z,101974.66
2023-01-03T17:39:10.339Z,101974.66
2023-01-03T17:41:59.172Z,101972.00
2023-01-03T17:44:28.163Z,101971.81
2023-01-03T17:47:14.831Z,101974.69
2023-01-03T17:49:42.465Z,101973.69
2023-01-03T17:52:24.011Z,101972.31
2023-01-03T17:54:53.390Z,101971.47
2023-01-03T17:57:21.112Z,101972.31
2023-01-03T17:59:50.159Z,101974.19
2023-01-03T18:02:20.679Z,101972.94
2023-01-03T18:05:15.097Z,101969.53
2023-01-03T18:07:37.558Z,101982.50
2023-01-03T18:10:06.480Z,101971.50
2023-01-03T18:12:34.111Z,101973.13
2023-01-03T18:15:03.126Z,101973.91
2023-01-03T18:17:32.574Z,101973.38
2023-01-03T18:20:01.041Z,101972.22
2023-01-03T18:22:29.069Z,101982.53
2023-01-03T18:24:57.961Z,101977.84
2023-01-03T18:27:28.129Z,101974.28
2023-01-03T18:29:55.726Z,101967.66
2023-01-03T18:32:28.722Z,101970.91
2023-01-03T18:34:56.986Z,101970.03
2023-01-03T18:37:29.776Z,101962.78
2023-01-03T18:39:57.532Z,101961.94
2023-01-03T18:42:42.646Z,101964.97
2023-01-03T18:45:12.513Z,101962.09
2023-01-03T18:47:41.713Z,101957.38
2023-01-03T18:50:17.766Z,101959.75
2023-01-03T18:52:46.011Z,101955.06
2023-01-03T18:55:17.281Z,101946.78
2023-01-03T18:57:46.233Z,101946.25
2023-01-03T19:00:18.564Z,101940.31
2023-01-03T19:02:47.740Z,101947.41
2023-01-03T19:05:16.110Z,101948.56
2023-01-03T19:07:45.827Z,101944.34
2023-01-03T19:10:21.375Z,101948.56
2023-01-03T19:12:50.592Z,101956.69
2023-01-03T19:15:19.299Z,101958.06
2023-01-03T19:17:48.474Z,101945.88
2023-01-03T19:20:19.483Z,101950.75
2023-01-03T19:22:52.301Z,101947.53
2023-01-03T19:25:27.046Z,101944.13
2023-01-03T19:27:59.290Z,101939.13
2023-01-03T19:30:37.315Z,101946.22
2023-01-03T19:33:12.213Z,101941.31
2023-01-03T19:35:39.962Z,101930.97
2023-01-03T19:38:10.172Z,101932.84
2023-01-03T19:40:40.598Z,101935.53
2023-01-03T19:43:08.236Z,101930.19
2023-01-03T19:45:37.888Z,101924.34
2023-01-03T19:48:17.306Z,101918.25
2023-01-03T19:50:45.830Z,101916.56
2023-01-03T19:53:13.520Z,101911.78
2023-01-03T19:55:43.539Z,101907.00
2023-01-03T19:58:19.327Z,101911.41
2023-01-03T20:00:49.379Z,101913.47
2023-01-03T20:03:26.880Z,101910.84
2023-01-03T20:05:54.855Z,101906.59
2023-01-03T20:08:22.488Z,101907.94
2023-01-03T20:10:52.275Z,101897.06
2023-01-03T20:13:23.069Z,101891.44
2023-01-03T20:15:52.940Z,101887.19
2023-01-03T20:18:27.080Z,101878.41
2023-01-03T20:20:57.408Z,101878.41
2023-01-03T20:23:25.460Z,101868.75
2023-01-03T20:25:53.220Z,101873.16
2023-01-03T20:28:28.859Z,101868.09
2023-01-03T20:30:57.255Z,101865.69
2023-01-03T20:33:27.291Z,101862.13
2023-01-03T20:36:11.082Z,101866.00
2023-01-03T20:38:44.600Z,101864.78
2023-01-03T20:41:21.381Z,101864.06
2023-01-03T20:43:57.751Z,101863.53
2023-01-03T20:46:35.719Z,101859.50
2023-01-03T20:49:22.671Z,101864.91
2023-01-03T20:52:13.560Z,101862.91
2023-01-03T20:54:53.195Z,101855.53
2023-01-03T20:57:31.757Z,101844.47
2023-01-03T21:00:27.323Z,101842.84
2023-01-03T21:03:07.782Z,101842.22
2023-01-03T21:06:01.705Z,101838.81
2023-01-03T21:09:00.980Z,101833.41
2023-01-03T21:11:41.440Z,101833.75
2023-01-03T21:14:16.092Z,101826.34
2023-01-03T21:16:56.976Z,101818.53
2023-01-03T21:19:32.365Z,101817.00
2023-01-03T21:22:20.356Z,101815.34
2023-01-03T21:24:57.749Z,101815.34
2023-01-03T21:27:32.616Z,101810.44
2023-01-03T21:30:03.456Z,101798.00
2023-01-03T21:32:39.173Z,101788.47
2023-01-03T21:35:26.685Z,101783.56
2023-01-03T21:38:09.138Z,101786.59
2023-01-03T21:40:53.909Z,101778.34
2023-01-03T21:43:31.761Z,101781.59
2023-01-03T21:46:07.747Z,101777.19
2023-01-03T21:48:48.980Z,101777.56
2023-01-03T21:51:37.748Z,101774.16
2023-01-03T21:54:18.769Z,101780.25
2023-01-03T21:56:58.209Z,101767.22
2023-01-03T21:59:35.143Z,101757.97
2023-01-03T22:02:32.587Z,101761.00
2023-01-03T22:05:04.908Z,101761.06
2023-01-03T22:07:35.919Z,101754.34
2023-01-03T22:10:24.779Z,101744.09
2023-01-03T22:12:58.256Z,101739.03
2023-01-03T22:15:31.357Z,101722.91
2023-01-03T22:18:13.563Z,101741.13
2023-01-03T22:20:58.186Z,101741.34
2023-01-03T22:23:47.906Z,101733.78
2023-01-03T22:26:36.375Z,101726.16
2023-01-03T22:29:22.650Z,101730.00
2023-01-03T22:32:09.768Z,101750.22
2023-01-03T22:34:52.716Z,101748.44
2023-01-03T22:37:38.300Z,101745.59
2023-01-03T22:40:17.350Z,101746.13
2023-01-03T22:43:11.240Z,101736.03
2023-01-03T22:46:03.871Z,101739.44
2023-01-03T22:48:39.129Z,101737.56
2023-01-03T22:51:23.144Z,101744.13
2023-01-03T22:54:10.797Z,101726.66
2023-01-03T22:56:58.646Z,101724.63
2023-01-03T22:59:41.390Z,101730.50
2023-01-03T23:02:29.154Z,101739.66
2023-01-03T23:05:26.241Z,101732.78
2023-01-03T23:08:18.115Z,101727.91
2023-01-03T23:11:27.216Z,101727.59
2023-01-03T23:14:14.543Z,101720.53
2023-01-03T23:17:02.656Z,101705.50
2023-01-03T23:19:59.594Z,101702.47
2023-01-03T23:22:42.616Z,101687.00
2023-01-03T23:25:26.937Z,101678.91
2023-01-03T23:28:14.599Z,101667.56
2023-01-03T23:31:05.344Z,101657.25
2023-01-03T23:33:55.446Z,101657.25
2023-01-03T23:36:37.321Z,101650.69
2023-01-03T23:39:30.589Z,101653.53
2023-01-03T23:42:31.791Z,101647.78
2023-01-03T23:45:23.352Z,101637.97
2023-01-03T23:47:56.566Z,101637.09
2023-01-03T23:50:25.686Z,101640.34
2023-01-03T23:52:53.319Z,101648.72
2023-01-03T23:55:20.923Z,101637.78
2023-01-03T23:57:48.473Z,101638.31
